sensor_id;sensor_type;location;lat;lon;timestamp;P1;durP1;ratioP1;P2;durP2;ratioP2
17725;SDS011;8983;53.156;17.960;2023-04-09T00:00:01;34.27;;;18.80;;
17725;SDS011;8983;53.156;17.960;2023-04-09T00:02:29;31.17;;;18.50;;
17725;SDS011;8983;53.156;17.960;2023-04-09T00:04:57;30.27;;;17.10;;
17725;SDS011;8983;53.156;17.960;2023-04-09T00:07:29;31.43;;;17.50;;
17725;SDS011;8983;53.156;17.960;2023-04-09T00:09:57;27.67;;;17.47;;
17725;SDS011;8983;53.156;17.960;2023-04-09T00:12:25;27.97;;;16.87;;
17725;SDS011;8983;53.156;17.960;2023-04-09T00:14:55;27.90;;;16.80;;
17725;SDS011;8983;53.156;17.960;2023-04-09T00:17:23;27.27;;;17.10;;
17725;SDS011;8983;53.156;17.960;2023-04-09T00:19:51;29.00;;;17.53;;
17725;SDS011;8983;53.156;17.960;2023-04-09T00:22:19;22.57;;;15.50;;
17725;SDS011;8983;53.156;17.960;2023-04-09T00:24:49;25.40;;;16.70;;
17725;SDS011;8983;53.156;17.960;2023-04-09T00:27:17;28.27;;;16.93;;
17725;SDS011;8983;53.156;17.960;2023-04-09T00:29:45;25.80;;;16.27;;
17725;SDS011;8983;53.156;17.960;2023-04-09T00:32:13;29.17;;;18.00;;
17725;SDS011;8983;53.156;17.960;2023-04-09T00:34:41;26.73;;;16.87;;
17725;SDS011;8983;53.156;17.960;2023-04-09T00:37:09;29.43;;;18.60;;
17725;SDS011;8983;53.156;17.960;2023-04-09T00:39:37;29.90;;;18.20;;
17725;SDS011;8983;53.156;17.960;2023-04-09T00:42:08;32.80;;;18.37;;
17725;SDS011;8983;53.156;17.960;2023-04-09T00:44:36;28.73;;;16.87;;
17725;SDS011;8983;53.156;17.960;2023-04-09T00:47:04;30.27;;;17.57;;
17725;SDS011;8983;53.156;17.960;2023-04-09T00:49:32;32.90;;;16.07;;
17725;SDS011;8983;53.156;17.960;2023-04-09T00:52:01;29.30;;;16.20;;
17725;SDS011;8983;53.156;17.960;2023-04-09T00:54:29;26.40;;;16.23;;
17725;SDS011;8983;53.156;17.960;2023-04-09T00:56:57;29.20;;;16.37;;
17725;SDS011;8983;53.156;17.960;2023-04-09T00:59:27;27.47;;;16.33;;
17725;SDS011;8983;53.156;17.960;2023-04-09T01:01:55;32.37;;;16.87;;
17725;SDS011;8983;53.156;17.960;2023-04-09T01:04:23;30.87;;;15.83;;
17725;SDS011;8983;53.156;17.960;2023-04-09T01:06:52;30.27;;;16.63;;
17725;SDS011;8983;53.156;17.960;2023-04-09T01:09:32;28.93;;;17.00;;
17725;SDS011;8983;53.156;17.960;2023-04-09T01:12:07;30.27;;;16.87;;
17725;SDS011;8983;53.156;17.960;2023-04-09T01:14:43;23.60;;;16.27;;
17725;SDS011;8983;53.156;17.960;2023-04-09T01:17:19;29.07;;;17.07;;
17725;SDS011;8983;53.156;17.960;2023-04-09T01:19:53;27.40;;;17.00;;
17725;SDS011;8983;53.156;17.960;2023-04-09T01:22:30;28.30;;;17.23;;
17725;SDS011;8983;53.156;17.960;2023-04-09T01:25:10;27.83;;;16.23;;
17725;SDS011;8983;53.156;17.960;2023-04-09T01:27:53;24.37;;;15.27;;
17725;SDS011;8983;53.156;17.960;2023-04-09T01:30:39;24.83;;;15.90;;
17725;SDS011;8983;53.156;17.960;2023-04-09T01:33:09;26.10;;;16.03;;
17725;SDS011;8983;53.156;17.960;2023-04-09T01:35:40;27.40;;;16.33;;
17725;SDS011;8983;53.156;17.960;2023-04-09T01:38:09;26.40;;;15.90;;
17725;SDS011;8983;53.156;17.960;2023-04-09T01:40:38;23.77;;;15.03;;
17725;SDS011;8983;53.156;17.960;2023-04-09T01:43:07;27.40;;;15.90;;
17725;SDS011;8983;53.156;17.960;2023-04-09T01:45:37;29.30;;;15.67;;
17725;SDS011;8983;53.156;17.960;2023-04-09T01:48:06;26.73;;;14.50;;
17725;SDS011;8983;53.156;17.960;2023-04-09T01:50:35;28.03;;;15.83;;
17725;SDS011;8983;53.156;17.960;2023-04-09T01:53:04;24.30;;;15.13;;
17725;SDS011;8983;53.156;17.960;2023-04-09T01:55:32;24.53;;;15.27;;
17725;SDS011;8983;53.156;17.960;2023-04-09T01:58:01;25.90;;;16.00;;
17725;SDS011;8983;53.156;17.960;2023-04-09T02:00:33;30.60;;;16.87;;
17725;SDS011;8983;53.156;17.960;2023-04-09T02:03:05;28.60;;;15.67;;
17725;SDS011;8983;53.156;17.960;2023-04-09T02:05:37;25.97;;;15.80;;
17725;SDS011;8983;53.156;17.960;2023-04-09T02:08:09;27.90;;;16.17;;
17725;SDS011;8983;53.156;17.960;2023-04-09T02:10:39;24.60;;;15.57;;
17725;SDS011;8983;53.156;17.960;2023-04-09T02:13:09;25.37;;;15.77;;
17725;SDS011;8983;53.156;17.960;2023-04-09T02:15:41;23.97;;;15.57;;
17725;SDS011;8983;53.156;17.960;2023-04-09T02:18:21;26.23;;;15.50;;
17725;SDS011;8983;53.156;17.960;2023-04-09T02:20:54;29.90;;;16.57;;
17725;SDS011;8983;53.156;17.960;2023-04-09T02:23:23;28.43;;;16.90;;
17725;SDS011;8983;53.156;17.960;2023-04-09T02:25:52;29.07;;;16.03;;
17725;SDS011;8983;53.156;17.960;2023-04-09T02:28:20;29.67;;;16.50;;
17725;SDS011;8983;53.156;17.960;2023-04-09T02:30:50;33.57;;;15.27;;
17725;SDS011;8983;53.156;17.960;2023-04-09T02:33:18;32.33;;;15.73;;
17725;SDS011;8983;53.156;17.960;2023-04-09T02:35:46;32.80;;;17.33;;
17725;SDS011;8983;53.156;17.960;2023-04-09T02:38:14;31.70;;;16.57;;
17725;SDS011;8983;53.156;17.960;2023-04-09T02:40:42;36.13;;;18.90;;
17725;SDS011;8983;53.156;17.960;2023-04-09T02:43:10;44.87;;;18.47;;
17725;SDS011;8983;53.156;17.960;2023-04-09T02:45:39;37.47;;;18.13;;
17725;SDS011;8983;53.156;17.960;2023-04-09T02:48:08;39.77;;;18.20;;
17725;SDS011;8983;53.156;17.960;2023-04-09T02:50:36;43.23;;;19.33;;
17725;SDS011;8983;53.156;17.960;2023-04-09T02:53:04;36.43;;;18.00;;
17725;SDS011;8983;53.156;17.960;2023-04-09T02:55:32;41.43;;;19.30;;
17725;SDS011;8983;53.156;17.960;2023-04-09T02:58:00;44.07;;;20.17;;
17725;SDS011;8983;53.156;17.960;2023-04-09T03:00:28;43.37;;;20.47;;
17725;SDS011;8983;53.156;17.960;2023-04-09T03:02:56;37.90;;;19.40;;
17725;SDS011;8983;53.156;17.960;2023-04-09T03:05:26;43.47;;;20.00;;
17725;SDS011;8983;53.156;17.960;2023-04-09T03:07:54;42.03;;;20.20;;
17725;SDS011;8983;53.156;17.960;2023-04-09T03:10:22;44.90;;;20.10;;
17725;SDS011;8983;53.156;17.960;2023-04-09T03:12:50;42.20;;;19.93;;
17725;SDS011;8983;53.156;17.960;2023-04-09T03:15:18;40.50;;;19.17;;
17725;SDS011;8983;53.156;17.960;2023-04-09T03:17:46;36.97;;;18.23;;
17725;SDS011;8983;53.156;17.960;2023-04-09T03:20:14;34.37;;;19.10;;
17725;SDS011;8983;53.156;17.960;2023-04-09T03:22:43;39.53;;;18.63;;
17725;SDS011;8983;53.156;17.960;2023-04-09T03:25:11;39.10;;;19.77;;
17725;SDS011;8983;53.156;17.960;2023-04-09T03:27:40;43.70;;;19.53;;
17725;SDS011;8983;53.156;17.960;2023-04-09T03:30:08;39.40;;;19.80;;
17725;SDS011;8983;53.156;17.960;2023-04-09T03:32:36;45.17;;;19.97;;
17725;SDS011;8983;53.156;17.960;2023-04-09T03:35:05;38.77;;;18.73;;
17725;SDS011;8983;53.156;17.960;2023-04-09T03:37:33;38.23;;;19.57;;
17725;SDS011;8983;53.156;17.960;2023-04-09T03:40:03;39.83;;;19.50;;
17725;SDS011;8983;53.156;17.960;2023-04-09T03:42:31;38.40;;;19.67;;
17725;SDS011;8983;53.156;17.960;2023-04-09T03:45:00;45.23;;;18.87;;
17725;SDS011;8983;53.156;17.960;2023-04-09T03:47:28;43.27;;;19.77;;
17725;SDS011;8983;53.156;17.960;2023-04-09T03:49:56;48.83;;;21.07;;
17725;SDS011;8983;53.156;17.960;2023-04-09T03:52:24;43.93;;;19.10;;
17725;SDS011;8983;53.156;17.960;2023-04-09T03:54:53;43.67;;;21.23;;
17725;SDS011;8983;53.156;17.960;2023-04-09T03:57:22;41.07;;;19.63;;
17725;SDS011;8983;53.156;17.960;2023-04-09T03:59:50;37.93;;;20.43;;
17725;SDS011;8983;53.156;17.960;2023-04-09T04:02:18;42.07;;;20.17;;
17725;SDS011;8983;53.156;17.960;2023-04-09T04:04:46;38.43;;;18.70;;
17725;SDS011;8983;53.156;17.960;2023-04-09T04:07:14;33.97;;;18.73;;
17725;SDS011;8983;53.156;17.960;2023-04-09T04:09:42;44.40;;;19.27;;
17725;SDS011;8983;53.156;17.960;2023-04-09T04:12:11;44.03;;;20.00;;
17725;SDS011;8983;53.156;17.960;2023-04-09T04:14:40;44.73;;;19.27;;
17725;SDS011;8983;53.156;17.960;2023-04-09T04:17:09;38.93;;;19.90;;
17725;SDS011;8983;53.156;17.960;2023-04-09T04:19:37;37.93;;;18.37;;
17725;SDS011;8983;53.156;17.960;2023-04-09T04:22:05;47.07;;;20.80;;
17725;SDS011;8983;53.156;17.960;2023-04-09T04:24:33;39.63;;;20.43;;
17725;SDS011;8983;53.156;17.960;2023-04-09T04:27:01;46.27;;;19.90;;
17725;SDS011;8983;53.156;17.960;2023-04-09T04:29:30;40.13;;;20.17;;
17725;SDS011;8983;53.156;17.960;2023-04-09T04:31:59;43.23;;;20.97;;
17725;SDS011;8983;53.156;17.960;2023-04-09T04:34:28;45.20;;;21.53;;
17725;SDS011;8983;53.156;17.960;2023-04-09T04:36:56;43.53;;;21.50;;
17725;SDS011;8983;53.156;17.960;2023-04-09T04:39:24;41.37;;;20.97;;
17725;SDS011;8983;53.156;17.960;2023-04-09T04:41:51;40.77;;;19.93;;
17725;SDS011;8983;53.156;17.960;2023-04-09T04:44:20;48.00;;;20.80;;
17725;SDS011;8983;53.156;17.960;2023-04-09T04:46:48;42.67;;;22.17;;
17725;SDS011;8983;53.156;17.960;2023-04-09T04:49:17;41.07;;;20.57;;
17725;SDS011;8983;53.156;17.960;2023-04-09T04:51:45;41.03;;;19.87;;
17725;SDS011;8983;53.156;17.960;2023-04-09T04:54:13;37.70;;;19.90;;
17725;SDS011;8983;53.156;17.960;2023-04-09T04:56:41;42.63;;;20.20;;
17725;SDS011;8983;53.156;17.960;2023-04-09T04:59:09;37.43;;;19.87;;
17725;SDS011;8983;53.156;17.960;2023-04-09T05:01:37;36.27;;;19.00;;
17725;SDS011;8983;53.156;17.960;2023-04-09T05:04:05;37.50;;;19.83;;
17725;SDS011;8983;53.156;17.960;2023-04-09T05:06:35;42.07;;;20.63;;
17725;SDS011;8983;53.156;17.960;2023-04-09T05:09:03;39.23;;;19.67;;
17725;SDS011;8983;53.156;17.960;2023-04-09T05:11:31;42.80;;;20.50;;
17725;SDS011;8983;53.156;17.960;2023-04-09T05:13:59;39.13;;;20.63;;
17725;SDS011;8983;53.156;17.960;2023-04-09T05:16:27;34.93;;;18.40;;
17725;SDS011;8983;53.156;17.960;2023-04-09T05:18:55;39.27;;;19.30;;
17725;SDS011;8983;53.156;17.960;2023-04-09T05:21:23;33.57;;;18.17;;
17725;SDS011;8983;53.156;17.960;2023-04-09T05:23:52;36.53;;;18.77;;
17725;SDS011;8983;53.156;17.960;2023-04-09T05:26:21;35.83;;;18.20;;
17725;SDS011;8983;53.156;17.960;2023-04-09T05:28:49;36.60;;;18.63;;
17725;SDS011;8983;53.156;17.960;2023-04-09T05:31:18;37.83;;;19.47;;
17725;SDS011;8983;53.156;17.960;2023-04-09T05:33:46;32.10;;;17.67;;
17725;SDS011;8983;53.156;17.960;2023-04-09T05:36:14;34.13;;;17.97;;
17725;SDS011;8983;53.156;17.960;2023-04-09T05:38:43;34.60;;;17.93;;
17725;SDS011;8983;53.156;17.960;2023-04-09T05:41:13;35.13;;;17.70;;
17725;SDS011;8983;53.156;17.960;2023-04-09T05:43:42;32.77;;;17.83;;
17725;SDS011;8983;53.156;17.960;2023-04-09T05:46:10;27.63;;;16.67;;
17725;SDS011;8983;53.156;17.960;2023-04-09T05:48:38;32.97;;;16.57;;
17725;SDS011;8983;53.156;17.960;2023-04-09T05:51:06;30.07;;;15.30;;
17725;SDS011;8983;53.156;17.960;2023-04-09T05:53:34;29.23;;;14.57;;
17725;SDS011;8983;53.156;17.960;2023-04-09T05:56:02;28.93;;;15.50;;
17725;SDS011;8983;53.156;17.960;2023-04-09T05:58:40;28.27;;;15.73;;
17725;SDS011;8983;53.156;17.960;2023-04-09T06:01:09;26.90;;;15.43;;
17725;SDS011;8983;53.156;17.960;2023-04-09T06:03:37;29.67;;;15.17;;
17725;SDS011;8983;53.156;17.960;2023-04-09T06:06:05;27.37;;;15.13;;
17725;SDS011;8983;53.156;17.960;2023-04-09T06:08:33;28.33;;;15.63;;
17725;SDS011;8983;53.156;17.960;2023-04-09T06:11:01;27.20;;;15.03;;
17725;SDS011;8983;53.156;17.960;2023-04-09T06:13:29;26.93;;;15.23;;
17725;SDS011;8983;53.156;17.960;2023-04-09T06:15:59;28.50;;;15.17;;
17725;SDS011;8983;53.156;17.960;2023-04-09T06:18:27;31.47;;;15.77;;
17725;SDS011;8983;53.156;17.960;2023-04-09T06:21:00;30.20;;;14.77;;
17725;SDS011;8983;53.156;17.960;2023-04-09T06:23:28;26.87;;;15.03;;
17725;SDS011;8983;53.156;17.960;2023-04-09T06:25:56;29.67;;;15.30;;
17725;SDS011;8983;53.156;17.960;2023-04-09T06:28:25;33.33;;;15.93;;
17725;SDS011;8983;53.156;17.960;2023-04-09T06:30:52;28.13;;;15.03;;
17725;SDS011;8983;53.156;17.960;2023-04-09T06:33:23;29.10;;;15.20;;
17725;SDS011;8983;53.156;17.960;2023-04-09T06:35:51;28.07;;;15.53;;
17725;SDS011;8983;53.156;17.960;2023-04-09T06:38:19;27.70;;;15.20;;
17725;SDS011;8983;53.156;17.960;2023-04-09T06:40:47;26.03;;;14.77;;
17725;SDS011;8983;53.156;17.960;2023-04-09T06:43:15;27.70;;;15.97;;
17725;SDS011;8983;53.156;17.960;2023-04-09T06:45:43;32.07;;;15.67;;
17725;SDS011;8983;53.156;17.960;2023-04-09T06:48:11;24.50;;;14.80;;
17725;SDS011;8983;53.156;17.960;2023-04-09T06:50:41;29.00;;;15.73;;
17725;SDS011;8983;53.156;17.960;2023-04-09T06:53:09;28.17;;;15.07;;
17725;SDS011;8983;53.156;17.960;2023-04-09T06:55:37;24.07;;;14.07;;
17725;SDS011;8983;53.156;17.960;2023-04-09T06:58:05;25.50;;;15.50;;
17725;SDS011;8983;53.156;17.960;2023-04-09T07:00:33;28.90;;;15.73;;
17725;SDS011;8983;53.156;17.960;2023-04-09T07:03:01;27.07;;;15.60;;
17725;SDS011;8983;53.156;17.960;2023-04-09T07:05:30;28.23;;;15.57;;
17725;SDS011;8983;53.156;17.960;2023-04-09T07:08:00;28.47;;;15.23;;
17725;SDS011;8983;53.156;17.960;2023-04-09T07:10:28;24.60;;;14.00;;
17725;SDS011;8983;53.156;17.960;2023-04-09T07:12:56;23.37;;;14.17;;
17725;SDS011;8983;53.156;17.960;2023-04-09T07:15:24;20.60;;;11.90;;
17725;SDS011;8983;53.156;17.960;2023-04-09T07:17:52;23.03;;;13.23;;
17725;SDS011;8983;53.156;17.960;2023-04-09T07:20:20;23.83;;;13.57;;
17725;SDS011;8983;53.156;17.960;2023-04-09T07:22:48;21.23;;;12.20;;
17725;SDS011;8983;53.156;17.960;2023-04-09T07:25:18;19.37;;;11.67;;
17725;SDS011;8983;53.156;17.960;2023-04-09T07:27:46;20.57;;;11.90;;
17725;SDS011;8983;53.156;17.960;2023-04-09T07:30:15;18.80;;;11.43;;
17725;SDS011;8983;53.156;17.960;2023-04-09T07:32:43;19.27;;;11.13;;
17725;SDS011;8983;53.156;17.960;2023-04-09T07:35:11;17.37;;;11.13;;
17725;SDS011;8983;53.156;17.960;2023-04-09T07:37:39;17.03;;;10.87;;
17725;SDS011;8983;53.156;17.960;2023-04-09T07:40:07;17.70;;;10.73;;
17725;SDS011;8983;53.156;17.960;2023-04-09T07:42:37;16.07;;;10.13;;
17725;SDS011;8983;53.156;17.960;2023-04-09T07:45:06;14.60;;;10.10;;
17725;SDS011;8983;53.156;17.960;2023-04-09T07:47:34;15.97;;;10.43;;
17725;SDS011;8983;53.156;17.960;2023-04-09T07:50:03;14.63;;;10.00;;
17725;SDS011;8983;53.156;17.960;2023-04-09T07:52:32;14.77;;;9.93;;
17725;SDS011;8983;53.156;17.960;2023-04-09T07:55:00;15.00;;;9.33;;
17725;SDS011;8983;53.156;17.960;2023-04-09T07:57:29;15.47;;;9.37;;
17725;SDS011;8983;53.156;17.960;2023-04-09T07:59:59;15.53;;;9.60;;
17725;SDS011;8983;53.156;17.960;2023-04-09T08:02:28;13.63;;;9.83;;
17725;SDS011;8983;53.156;17.960;2023-04-09T08:04:57;16.40;;;10.73;;
17725;SDS011;8983;53.156;17.960;2023-04-09T08:07:25;17.57;;;10.03;;
17725;SDS011;8983;53.156;17.960;2023-04-09T08:09:53;17.40;;;10.57;;
17725;SDS011;8983;53.156;17.960;2023-04-09T08:12:21;14.83;;;10.63;;
17725;SDS011;8983;53.156;17.960;2023-04-09T08:14:49;17.70;;;10.77;;
17725;SDS011;8983;53.156;17.960;2023-04-09T08:17:19;17.33;;;9.87;;
17725;SDS011;8983;53.156;17.960;2023-04-09T08:19:47;14.80;;;10.10;;
17725;SDS011;8983;53.156;17.960;2023-04-09T08:22:16;15.40;;;10.20;;
17725;SDS011;8983;53.156;17.960;2023-04-09T08:24:44;17.80;;;10.17;;
17725;SDS011;8983;53.156;17.960;2023-04-09T08:27:17;18.93;;;11.30;;
17725;SDS011;8983;53.156;17.960;2023-04-09T08:29:47;18.80;;;10.93;;
17725;SDS011;8983;53.156;17.960;2023-04-09T08:32:15;19.07;;;11.03;;
17725;SDS011;8983;53.156;17.960;2023-04-09T08:34:44;17.87;;;11.53;;
17725;SDS011;8983;53.156;17.960;2023-04-09T08:37:13;17.73;;;11.37;;
17725;SDS011;8983;53.156;17.960;2023-04-09T08:39:41;17.70;;;11.47;;
17725;SDS011;8983;53.156;17.960;2023-04-09T08:42:10;14.57;;;10.40;;
17725;SDS011;8983;53.156;17.960;2023-04-09T08:44:40;18.03;;;11.23;;
17725;SDS011;8983;53.156;17.960;2023-04-09T08:47:08;17.67;;;11.63;;
17725;SDS011;8983;53.156;17.960;2023-04-09T08:49:37;16.50;;;10.53;;
17725;SDS011;8983;53.156;17.960;2023-04-09T08:52:08;17.10;;;10.37;;
17725;SDS011;8983;53.156;17.960;2023-04-09T08:54:36;16.90;;;10.37;;
17725;SDS011;8983;53.156;17.960;2023-04-09T08:57:04;17.10;;;10.87;;
17725;SDS011;8983;53.156;17.960;2023-04-09T08:59:32;18.63;;;11.20;;
17725;SDS011;8983;53.156;17.960;2023-04-09T09:02:06;19.63;;;11.73;;
17725;SDS011;8983;53.156;17.960;2023-04-09T09:04:44;17.73;;;11.43;;
17725;SDS011;8983;53.156;17.960;2023-04-09T09:07:14;18.90;;;11.67;;
17725;SDS011;8983;53.156;17.960;2023-04-09T09:09:49;19.23;;;11.57;;
17725;SDS011;8983;53.156;17.960;2023-04-09T09:12:32;17.93;;;11.77;;
17725;SDS011;8983;53.156;17.960;2023-04-09T09:15:01;18.67;;;12.53;;
17725;SDS011;8983;53.156;17.960;2023-04-09T09:17:30;21.20;;;12.40;;
17725;SDS011;8983;53.156;17.960;2023-04-09T09:19:58;18.53;;;11.70;;
17725;SDS011;8983;53.156;17.960;2023-04-09T09:22:50;19.90;;;12.40;;
17725;SDS011;8983;53.156;17.960;2023-04-09T09:25:20;19.80;;;12.67;;
17725;SDS011;8983;53.156;17.960;2023-04-09T09:27:51;20.17;;;13.83;;
17725;SDS011;8983;53.156;17.960;2023-04-09T09:30:20;21.27;;;13.03;;
17725;SDS011;8983;53.156;17.960;2023-04-09T09:32:52;16.70;;;11.23;;
17725;SDS011;8983;53.156;17.960;2023-04-09T09:35:21;16.27;;;10.63;;
17725;SDS011;8983;53.156;17.960;2023-04-09T09:38:00;16.60;;;11.03;;
17725;SDS011;8983;53.156;17.960;2023-04-09T09:40:30;15.67;;;9.87;;
17725;SDS011;8983;53.156;17.960;2023-04-09T09:42:58;15.90;;;9.97;;
17725;SDS011;8983;53.156;17.960;2023-04-09T09:45:26;14.60;;;9.20;;
17725;SDS011;8983;53.156;17.960;2023-04-09T09:47:56;14.13;;;9.87;;
17725;SDS011;8983;53.156;17.960;2023-04-09T09:50:24;13.57;;;9.10;;
17725;SDS011;8983;53.156;17.960;2023-04-09T09:52:58;15.43;;;9.20;;
17725;SDS011;8983;53.156;17.960;2023-04-09T09:55:31;14.17;;;8.77;;
17725;SDS011;8983;53.156;17.960;2023-04-09T09:58:01;12.90;;;8.40;;
17725;SDS011;8983;53.156;17.960;2023-04-09T10:00:37;17.40;;;11.17;;
17725;SDS011;8983;53.156;17.960;2023-04-09T10:03:06;19.23;;;12.47;;
17725;SDS011;8983;53.156;17.960;2023-04-09T10:05:41;18.40;;;11.13;;
17725;SDS011;8983;53.156;17.960;2023-04-09T10:08:11;37.27;;;18.03;;
17725;SDS011;8983;53.156;17.960;2023-04-09T10:10:39;20.57;;;12.97;;
17725;SDS011;8983;53.156;17.960;2023-04-09T10:13:08;14.30;;;9.13;;
17725;SDS011;8983;53.156;17.960;2023-04-09T10:15:42;19.97;;;12.93;;
17725;SDS011;8983;53.156;17.960;2023-04-09T10:18:11;12.13;;;8.80;;
17725;SDS011;8983;53.156;17.960;2023-04-09T10:20:40;12.00;;;8.47;;
17725;SDS011;8983;53.156;17.960;2023-04-09T10:23:18;13.63;;;8.27;;
17725;SDS011;8983;53.156;17.960;2023-04-09T10:25:53;33.80;;;16.47;;
17725;SDS011;8983;53.156;17.960;2023-04-09T10:28:21;29.17;;;14.93;;
17725;SDS011;8983;53.156;17.960;2023-04-09T10:30:49;13.70;;;8.47;;
17725;SDS011;8983;53.156;17.960;2023-04-09T10:33:21;12.60;;;9.03;;
17725;SDS011;8983;53.156;17.960;2023-04-09T10:35:52;11.70;;;7.57;;
17725;SDS011;8983;53.156;17.960;2023-04-09T10:38:35;10.77;;;7.80;;
17725;SDS011;8983;53.156;17.960;2023-04-09T10:41:08;12.70;;;7.90;;
17725;SDS011;8983;53.156;17.960;2023-04-09T10:43:42;10.43;;;7.03;;
17725;SDS011;8983;53.156;17.960;2023-04-09T10:46:26;12.47;;;7.73;;
17725;SDS011;8983;53.156;17.960;2023-04-09T10:49:08;15.77;;;9.53;;
17725;SDS011;8983;53.156;17.960;2023-04-09T10:51:42;11.37;;;7.83;;
17725;SDS011;8983;53.156;17.960;2023-04-09T10:57:13;12.70;;;8.07;;
17725;SDS011;8983;53.156;17.960;2023-04-09T10:59:50;12.17;;;7.90;;
17725;SDS011;8983;53.156;17.960;2023-04-09T11:05:18;14.40;;;9.07;;
17725;SDS011;8983;53.156;17.960;2023-04-09T11:07:52;18.10;;;9.57;;
17725;SDS011;8983;53.156;17.960;2023-04-09T11:10:24;11.63;;;7.87;;
17725;SDS011;8983;53.156;17.960;2023-04-09T11:12:52;10.80;;;7.60;;
17725;SDS011;8983;53.156;17.960;2023-04-09T11:15:20;10.30;;;7.70;;
17725;SDS011;8983;53.156;17.960;2023-04-09T11:17:48;10.47;;;8.03;;
17725;SDS011;8983;53.156;17.960;2023-04-09T11:20:18;12.17;;;7.70;;
17725;SDS011;8983;53.156;17.960;2023-04-09T11:22:48;8.67;;;6.90;;
17725;SDS011;8983;53.156;17.960;2023-04-09T11:25:18;9.47;;;7.10;;
17725;SDS011;8983;53.156;17.960;2023-04-09T11:27:48;9.83;;;7.27;;
17725;SDS011;8983;53.156;17.960;2023-04-09T11:30:16;8.87;;;6.80;;
17725;SDS011;8983;53.156;17.960;2023-04-09T11:32:44;12.17;;;7.80;;
17725;SDS011;8983;53.156;17.960;2023-04-09T11:35:14;10.77;;;7.30;;
17725;SDS011;8983;53.156;17.960;2023-04-09T11:37:43;9.07;;;6.80;;
17725;SDS011;8983;53.156;17.960;2023-04-09T11:40:15;9.37;;;7.27;;
17725;SDS011;8983;53.156;17.960;2023-04-09T11:42:45;9.97;;;6.87;;
17725;SDS011;8983;53.156;17.960;2023-04-09T11:45:16;11.00;;;6.40;;
17725;SDS011;8983;53.156;17.960;2023-04-09T11:47:45;7.20;;;6.27;;
17725;SDS011;8983;53.156;17.960;2023-04-09T11:50:14;9.40;;;6.30;;
17725;SDS011;8983;53.156;17.960;2023-04-09T11:52:43;7.43;;;6.37;;
17725;SDS011;8983;53.156;17.960;2023-04-09T11:55:12;7.57;;;6.27;;
17725;SDS011;8983;53.156;17.960;2023-04-09T11:57:52;8.03;;;6.50;;
17725;SDS011;8983;53.156;17.960;2023-04-09T12:00:23;7.90;;;6.80;;
17725;SDS011;8983;53.156;17.960;2023-04-09T12:02:57;9.70;;;6.50;;
17725;SDS011;8983;53.156;17.960;2023-04-09T12:05:28;8.67;;;6.20;;
17725;SDS011;8983;53.156;17.960;2023-04-09T12:07:57;7.53;;;6.07;;
17725;SDS011;8983;53.156;17.960;2023-04-09T12:10:27;8.47;;;6.10;;
17725;SDS011;8983;53.156;17.960;2023-04-09T12:13:01;6.07;;;5.37;;
17725;SDS011;8983;53.156;17.960;2023-04-09T12:15:30;7.57;;;5.97;;
17725;SDS011;8983;53.156;17.960;2023-04-09T12:18:00;6.47;;;5.50;;
17725;SDS011;8983;53.156;17.960;2023-04-09T12:20:29;6.60;;;5.10;;
17725;SDS011;8983;53.156;17.960;2023-04-09T12:23:00;8.60;;;5.90;;
17725;SDS011;8983;53.156;17.960;2023-04-09T12:25:29;7.60;;;5.80;;
17725;SDS011;8983;53.156;17.960;2023-04-09T12:27:57;6.90;;;5.50;;
17725;SDS011;8983;53.156;17.960;2023-04-09T12:30:27;7.03;;;5.23;;
17725;SDS011;8983;53.156;17.960;2023-04-09T12:32:57;6.77;;;5.37;;
17725;SDS011;8983;53.156;17.960;2023-04-09T12:35:25;6.43;;;5.50;;
17725;SDS011;8983;53.156;17.960;2023-04-09T12:37:54;6.13;;;5.30;;
17725;SDS011;8983;53.156;17.960;2023-04-09T12:40:22;6.63;;;4.77;;
17725;SDS011;8983;53.156;17.960;2023-04-09T12:42:50;6.83;;;5.40;;
17725;SDS011;8983;53.156;17.960;2023-04-09T12:45:19;6.72;;;5.10;;
17725;SDS011;8983;53.156;17.960;2023-04-09T12:47:49;5.65;;;5.00;;
17725;SDS011;8983;53.156;17.960;2023-04-09T12:50:18;7.25;;;5.43;;
17725;SDS011;8983;53.156;17.960;2023-04-09T12:52:46;6.88;;;5.25;;
17725;SDS011;8983;53.156;17.960;2023-04-09T12:55:14;5.70;;;4.90;;
17725;SDS011;8983;53.156;17.960;2023-04-09T12:57:43;5.63;;;4.78;;
17725;SDS011;8983;53.156;17.960;2023-04-09T13:00:12;6.18;;;5.28;;
17725;SDS011;8983;53.156;17.960;2023-04-09T13:02:41;8.27;;;5.60;;
17725;SDS011;8983;53.156;17.960;2023-04-09T13:05:11;5.45;;;4.40;;
17725;SDS011;8983;53.156;17.960;2023-04-09T13:07:39;5.13;;;4.63;;
17725;SDS011;8983;53.156;17.960;2023-04-09T13:10:09;5.80;;;5.10;;
17725;SDS011;8983;53.156;17.960;2023-04-09T13:12:37;5.72;;;4.65;;
17725;SDS011;8983;53.156;17.960;2023-04-09T13:15:05;5.47;;;4.60;;
17725;SDS011;8983;53.156;17.960;2023-04-09T13:17:34;6.20;;;5.05;;
17725;SDS011;8983;53.156;17.960;2023-04-09T13:20:02;6.20;;;5.00;;
17725;SDS011;8983;53.156;17.960;2023-04-09T13:22:32;6.45;;;5.78;;
17725;SDS011;8983;53.156;17.960;2023-04-09T13:25:02;7.22;;;5.65;;
17725;SDS011;8983;53.156;17.960;2023-04-09T13:27:30;6.18;;;5.57;;
17725;SDS011;8983;53.156;17.960;2023-04-09T13:29:58;8.02;;;6.55;;
17725;SDS011;8983;53.156;17.960;2023-04-09T13:32:26;6.78;;;5.85;;
17725;SDS011;8983;53.156;17.960;2023-04-09T13:34:54;7.57;;;6.75;;
17725;SDS011;8983;53.156;17.960;2023-04-09T13:37:23;8.00;;;5.95;;
17725;SDS011;8983;53.156;17.960;2023-04-09T13:39:53;7.90;;;5.97;;
17725;SDS011;8983;53.156;17.960;2023-04-09T13:42:21;7.38;;;5.90;;
17725;SDS011;8983;53.156;17.960;2023-04-09T13:44:49;6.97;;;6.28;;
17725;SDS011;8983;53.156;17.960;2023-04-09T13:47:17;9.30;;;6.63;;
17725;SDS011;8983;53.156;17.960;2023-04-09T13:49:45;7.38;;;6.35;;
17725;SDS011;8983;53.156;17.960;2023-04-09T13:52:13;8.80;;;6.75;;
17725;SDS011;8983;53.156;17.960;2023-04-09T13:54:41;8.63;;;6.57;;
17725;SDS011;8983;53.156;17.960;2023-04-09T13:57:11;9.38;;;6.93;;
17725;SDS011;8983;53.156;17.960;2023-04-09T13:59:39;9.15;;;7.32;;
17725;SDS011;8983;53.156;17.960;2023-04-09T14:02:07;11.88;;;7.25;;
17725;SDS011;8983;53.156;17.960;2023-04-09T14:04:36;8.82;;;7.20;;
17725;SDS011;8983;53.156;17.960;2023-04-09T14:07:04;11.57;;;7.97;;
17725;SDS011;8983;53.156;17.960;2023-04-09T14:09:32;9.82;;;7.65;;
17725;SDS011;8983;53.156;17.960;2023-04-09T14:12:00;11.88;;;7.47;;
17725;SDS011;8983;53.156;17.960;2023-04-09T14:14:29;10.00;;;8.15;;
17725;SDS011;8983;53.156;17.960;2023-04-09T14:16:57;10.40;;;8.38;;
17725;SDS011;8983;53.156;17.960;2023-04-09T14:19:25;11.98;;;8.43;;
17725;SDS011;8983;53.156;17.960;2023-04-09T14:21:53;11.48;;;7.95;;
17725;SDS011;8983;53.156;17.960;2023-04-09T14:24:21;13.05;;;9.10;;
17725;SDS011;8983;53.156;17.960;2023-04-09T14:26:49;13.75;;;9.23;;
17725;SDS011;8983;53.156;17.960;2023-04-09T14:29:19;13.73;;;9.65;;
17725;SDS011;8983;53.156;17.960;2023-04-09T14:31:49;12.55;;;8.65;;
17725;SDS011;8983;53.156;17.960;2023-04-09T14:34:19;11.95;;;9.40;;
17725;SDS011;8983;53.156;17.960;2023-04-09T14:36:47;13.00;;;9.10;;
17725;SDS011;8983;53.156;17.960;2023-04-09T14:39:15;13.27;;;9.80;;
17725;SDS011;8983;53.156;17.960;2023-04-09T14:41:44;14.98;;;9.73;;
17725;SDS011;8983;53.156;17.960;2023-04-09T14:44:12;13.15;;;9.55;;
17725;SDS011;8983;53.156;17.960;2023-04-09T14:46:41;15.13;;;9.50;;